• Join FlightAware (Why Join?)
  • Login
  • US Flag 
Trick or treat! (Boo!!) 
12:33PM EDT


 

Airport Tracker/Info


-or-


 

Live Flight TrackerFlight Track Log ✈ LXJ342 ✈ 11-May-2013 ✈ KTEB - KAPF

Flight Track Log - Related Links

Times and Time Zones

All times are in EDT time to prevent confusion due to time zone crossing. See the LXJ342 flight status page for this flight to view local times or setup timezone preferences in your user account.

Time Position Orientation Groundspeed Altitude Reporting Facility
EDT Latitude Longitude Course Direction KTS MPH feet Rate Location/Type
08:41AM 40.8333 -74.1000 246° West 178 205 1,400  Level New York TRACON
08:42AM 40.8167 -74.1500 246° West 172 198 4,900 4,080 Climbing New York TRACON
08:43AM 40.8167 -74.2167 270° West 174 200 9,600 11,400 Climbing New York TRACON
08:45AM 40.8206 -74.3961 272° West 265 305 40,000 9,900 Climbing New York Center
08:46AM 40.8400 -74.5097 283° West 288 331 40,000  Level New York Center
08:47AM 40.8683 -74.5961 293° West 294 338 40,000  Level New York Center
08:48AM 40.9022 -74.7053 292° West 294 338 40,000  Level New York Center
08:49AM 40.8686 -74.7772 238° Southwest 255 293 40,000  Level New York Center
08:50AM 40.7953 -74.8525 218° Southwest 271 312 40,000  Level New York Center
08:51AM 40.7117 -74.9161 210° Southwest 333 383 40,000 -10,560 Level New York Center
08:52AM 40.6261 -74.9792 209° Southwest 360 414 19,300 -8,820 Descending New York Center
08:53AM 40.5486 -75.0508 215° Southwest 360 414 22,100 2,580 Climbing New York Center
08:54AM 40.4847 -75.1478 229° Southwest 349 402 24,600 2,280 Climbing New York Center
08:55AM 40.4244 -75.2503 232° Southwest 349 402 26,800 1,980 Climbing New York Center
08:56AM 40.3600 -75.3525 230° Southwest 365 420 28,600 1,740 Climbing New York Center
08:57AM 40.2997 -75.4600 234° Southwest 370 426 30,300 1,560 Climbing New York Center
08:58AM 40.2350 -75.5672 232° Southwest 376 433 31,700 1,260 Climbing New York Center
08:59AM 40.1700 -75.6739 231° Southwest 381 438 32,800 1,380 Climbing New York Center
09:00AM 40.1069 -75.7836 233° Southwest 381 438 34,500 1,860 Climbing New York Center
09:01AM 40.0486 -75.8825 232° Southwest 375 432 36,600 1,380 Climbing New York Center
09:02AM 39.9881 -75.9783 231° Southwest 362 417 37,400 600 Climbing New York Center
09:04AM 39.8747 -76.1539 230° Southwest 355 409 38,500 600 Climbing Washington Center
09:05AM 39.8056 -76.2478 226° Southwest 355 409 39,300 720 Climbing Washington Center
09:06AM 39.7364 -76.3417 226° Southwest 366 421 40,000 300 Climbing Washington Center
09:07AM 39.6647 -76.4381 226° Southwest 371 427 40,000  Level Washington Center
09:08AM 39.5786 -76.5419 223° Southwest 376 433 40,000  Level Washington Center
09:09AM 39.5028 -76.6378 224° Southwest 381 438 40,000  Level Washington Center
09:10AM 39.4247 -76.7361 224° Southwest 386 444 40,000  Level Washington Center
09:11AM 39.3489 -76.8342 225° Southwest 386 444 40,000  Level Washington Center
09:12AM 39.2747 -76.9322 226° Southwest 381 438 40,000  Level Washington Center
09:13AM 39.1989 -77.0244 223° Southwest 381 438 40,000  Level Washington Center
09:14AM 39.1225 -77.1247 226° Southwest 381 438 40,000  Level Washington Center
09:15AM 39.0483 -77.2194 225° Southwest 381 438 40,000  Level Washington Center
09:16AM 38.9719 -77.3164 225° Southwest 381 438 40,000  Level Washington Center
09:17AM 38.8956 -77.4106 224° Southwest 381 438 40,000  Level Washington Center
09:18AM 38.8189 -77.5019 223° Southwest 381 438 40,000  Level Washington Center
09:19AM 38.7425 -77.5931 223° Southwest 381 438 40,000  Level Washington Center
09:20AM 38.6786 -77.6792 226° Southwest 381 438 40,000  Level Washington Center
09:21AM 38.6081 -77.7703 225° Southwest 374 430 40,000  Level Washington Center
09:22AM 38.5375 -77.8611 225° Southwest 368 423 40,000  Level Washington Center
09:23AM 38.4672 -77.9464 224° Southwest 368 423 40,000  Level Washington Center
09:24AM 38.3781 -78.0150 211° Southwest 363 418 40,000  Level Washington Center
09:25AM 38.2892 -78.0811 210° Southwest 373 429 40,000  Level Washington Center
09:26AM 38.1983 -78.1467 210° Southwest 373 429 40,000  Level Washington Center
09:27AM 38.1050 -78.2147 210° Southwest 379 436 40,000  Level Washington Center
09:28AM 38.0117 -78.2800 209° Southwest 384 442 40,000  Level Washington Center
09:29AM 37.9228 -78.3428 209° Southwest 376 433 40,000  Level Washington Center
09:30AM 37.8314 -78.4103 210° Southwest 382 440 40,000  Level Washington Center
09:31AM 37.7361 -78.4750 208° Southwest 382 440 40,000  Level Washington Center
09:32AM 37.6342 -78.5472 209° Southwest 382 440 40,000  Level Washington Center
09:33AM 37.5431 -78.6092 208° Southwest 382 440 40,000  Level Washington Center
09:34AM 37.4536 -78.6736 210° Southwest 382 440 40,000  Level Washington Center
09:35AM 37.3647 -78.7328 208° Southwest 382 440 40,000  Level Washington Center
09:36AM 37.2753 -78.7944 209° Southwest 382 440 40,000  Level Washington Center
09:37AM 37.1944 -78.8536 210° Southwest 382 440 40,000  Level Washington Center
09:38AM 37.1053 -78.9122 208° Southwest 382 440 40,000  Level Washington Center
09:39AM 37.0158 -78.9761 210° Southwest 377 434 40,000  Level Washington Center
09:40AM 36.9286 -79.0372 209° Southwest 377 434 40,000  Level Washington Center
09:41AM 36.8306 -79.1056 209° Southwest 377 434 40,000  Level Washington Center
09:42AM 36.7392 -79.1661 208° Southwest 377 434 40,000  Level Washington Center
09:43AM 36.6475 -79.2292 209° Southwest 383 441 40,000  Level Washington Center
09:44AM 36.5558 -79.2947 210° Southwest 383 441 40,000  Level Washington Center
09:45AM 36.4642 -79.3550 208° Southwest 383 441 40,000  Level Washington Center
09:46AM 36.3722 -79.4228 211° Southwest 383 441 40,000  Level Washington Center
09:47AM 36.2892 -79.4806 209° Southwest 383 441 40,000  Level Washington Center
09:49AM 36.1011 -79.6031 208° Southwest 390 449 40,000  Level Atlanta Center
09:50AM 36.0094 -79.6622 208° Southwest 390 449 40,000  Level Atlanta Center
09:51AM 35.9158 -79.7261 209° Southwest 385 443 40,000  Level Atlanta Center
09:52AM 35.8239 -79.7872 208° Southwest 380 437 40,000  Level Atlanta Center
09:53AM 35.7383 -79.8456 209° Southwest 387 445 40,000  Level Atlanta Center
09:54AM 35.6408 -79.9169 211° Southwest 392 451 40,000  Level Atlanta Center
09:55AM 35.5303 -79.9864 207° Southwest 403 464 40,000  Level Atlanta Center
09:56AM 35.4325 -80.0522 209° Southwest 403 464 40,000  Level Atlanta Center
09:57AM 35.3364 -80.1156 208° Southwest 398 458 40,000  Level Atlanta Center
09:58AM 35.2506 -80.1731 209° Southwest 398 458 40,000  Level Atlanta Center
09:59AM 35.1544 -80.2383 209° Southwest 398 458 40,000  Level Atlanta Center
10:01AM 34.9833 -80.3539 209° Southwest 386 444 40,000  Level Jacksonville Center
10:02AM 34.8925 -80.4072 206° Southwest 396 456 40,000  Level Jacksonville Center
10:03AM 34.8061 -80.4653 209° Southwest 383 441 40,000  Level Jacksonville Center
10:04AM 34.7092 -80.5286 208° Southwest 383 441 40,000  Level Jacksonville Center
10:05AM 34.6103 -80.5944 209° Southwest 389 448 40,000  Level Jacksonville Center
10:06AM 34.5092 -80.6525 205° Southwest 396 456 40,000  Level Jacksonville Center
10:07AM 34.3994 -80.6931 197° South 408 470 40,000  Level Jacksonville Center
10:08AM 34.2894 -80.7361 198° South 437 503 40,000  Level Jacksonville Center
10:09AM 34.1775 -80.7742 196° South 419 482 40,000  Level Jacksonville Center
10:10AM 34.0656 -80.8144 197° South 419 482 40,000 -60 Level Jacksonville Center
10:11AM 33.9536 -80.8547 197° South 419 482 39,900  Descending Jacksonville Center
10:12AM 33.8414 -80.8947 196° South 419 482 40,000  Climbing Jacksonville Center
10:13AM 33.7272 -80.9347 196° South 419 482 40,000  Level Jacksonville Center
10:14AM 33.6131 -80.9772 197° South 419 482 40,000  Level Jacksonville Center
10:15AM 33.4969 -81.0144 195° South 425 489 40,000  Level Jacksonville Center
10:16AM 33.3828 -81.0542 196° South 425 489 40,000  Level Jacksonville Center
10:17AM 33.2683 -81.0939 196° South 425 489 40,000  Level Jacksonville Center
10:18AM 33.1522 -81.1383 198° South 431 496 40,000  Level Jacksonville Center
10:19AM 33.0339 -81.1781 196° South 438 504 40,000  Level Jacksonville Center
10:20AM 32.9175 -81.2172 196° South 438 504 40,000  Level Jacksonville Center
10:21AM 32.8011 -81.2589 197° South 438 504 40,000  Level Jacksonville Center
10:22AM 32.6847 -81.2981 196° South 438 504 40,000  Level Jacksonville Center
10:23AM 32.5558 -81.3422 196° South 438 504 40,000  Level Jacksonville Center
10:24AM 32.4519 -81.3786 196° South 438 504 40,000  Level Jacksonville Center
10:25AM 32.3208 -81.4250 197° South 438 504 40,000  Level Jacksonville Center
10:26AM 32.2022 -81.4661 196° South 443 510 40,000  Level Jacksonville Center
10:27AM 32.0922 -81.5022 196° South 446 513 40,000  Level Jacksonville Center
10:28AM 31.9631 -81.5458 196° South 440 506 40,000  Level Jacksonville Center
10:29AM 31.8569 -81.5792 195° South 440 506 40,000  Level Jacksonville Center
10:30AM 31.7258 -81.6250 197° South 440 506 40,000  Level Jacksonville Center
10:31AM 31.6072 -81.6656 196° South 445 512 40,000  Level Jacksonville Center
10:32AM 31.5011 -81.6986 195° South 445 512 40,000  Level Jacksonville Center
10:33AM 31.3681 -81.7417 195° South 450 518 40,000  Level Jacksonville Center
10:34AM 31.2494 -81.7869 198° South 456 525 40,000  Level Jacksonville Center
10:35AM 31.1306 -81.8272 196° South 450 518 40,000  Level Jacksonville Center
10:36AM 31.0139 -81.8647 195° South 450 518 40,000  Level Jacksonville Center
10:37AM 30.8975 -81.9025 196° South 440 506 40,000  Level Jacksonville Center
10:38AM 30.7786 -81.9400 195° South 440 506 40,000  Level Jacksonville Center
10:39AM 30.6600 -81.9822 197° South 440 506 40,000  Level Jacksonville Center
10:40AM 30.5517 -82.0097 192° South 440 506 40,000  Level Jacksonville Center
10:41AM 30.4328 -82.0494 196° South 440 506 40,000  Level Jacksonville Center
10:42AM 30.3142 -82.0889 196° South 440 506 40,000  Level Jacksonville Center
10:43AM 30.1889 -82.1211 193° South 448 516 40,000  Level Jacksonville Center
10:44AM 30.0553 -82.1056 174° South 466 536 40,000  Level Jacksonville Center
10:45AM 29.9194 -82.0850 173° South 477 549 40,000  Level Jacksonville Center
10:46AM 29.7836 -82.0575 170° South 490 564 40,000 -360 Level Jacksonville Center
10:47AM 29.6456 -82.0275 169° South 502 578 39,300 -1,560 Descending Jacksonville Center
10:48AM 29.5033 -82.0003 171° South 514 592 37,000 -2,160 Descending Jacksonville Center
10:49AM 29.3717 -81.9750 171° South 508 585 35,000 -1,020 Descending Jacksonville Center
10:50AM 29.2483 -81.9478 169° South 480 552 35,000  Level Jacksonville Center
10:52AM 29.0069 -81.8986 170° South 466 536 35,000 -540 Level Miami Center
10:53AM 28.8744 -81.8689 169° South 472 543 33,500 -2,100 Descending Miami Center
10:54AM 28.7458 -81.8467 171° South 472 543 30,800 -2,580 Descending Miami Center
10:55AM 28.6236 -81.8244 171° South 466 536 28,400 -1,920 Descending Miami Center
10:56AM 28.5078 -81.7958 168° South 447 514 27,000 -900 Descending Miami Center
10:57AM 28.3858 -81.7622 166° South 442 509 26,700 -660 Descending Miami Center
10:58AM 28.2578 -81.7258 166° South 458 527 25,700 -1,080 Descending Miami Center
10:59AM 28.1317 -81.6900 166° South 470 541 24,600 -1,080 Descending Miami Center
11:00AM 28.0133 -81.6778 175° South 459 528 23,600 -1,020 Descending Miami Center
11:01AM 27.8953 -81.7128 195° South 439 505 22,600 -1,020 Descending Miami Center
11:02AM 27.7667 -81.7494 194° South 434 499 21,600 -1,020 Descending Miami Center
11:03AM 27.6619 -81.7636 187° South 429 494 20,600 -1,020 Descending Miami Center
11:04AM 27.5478 -81.7400 170° South 421 484 19,600 -1,080 Descending Miami Center
11:05AM 27.4308 -81.6861 158° South 427 491 18,500 -1,020 Descending Miami Center
11:06AM 27.3300 -81.6375 157° South 427 491 17,600 -840 Descending Miami Center
11:07AM 27.2272 -81.5886 157° South 421 484 16,900 -360 Descending Miami Center
11:08AM 27.1244 -81.5403 157° South 407 468 16,900 3,540 Level Miami Center
11:09AM 27.0114 -81.4844 156° South 407 468 24,000 -1,860 Climbing Miami Center
11:10AM 26.9089 -81.4314 155° Southeast 407 468 13,200 -6,600 Descending Miami Center
11:11AM 26.8122 -81.3833 156° South 400 460 10,900 -1,800 Descending Miami Center
11:12AM 26.7264 -81.3917 185° South 342 394 9,700 -1,260 Descending Miami Center
11:13AM 26.6428 -81.3956 182° South 332 382 8,400 -900 Descending Miami Center
11:14AM 26.5550 -81.3967 181° South 297 342 8,000 -900 Descending Miami Center
11:15AM 26.4769 -81.4192 194° South 286 329 6,600 -1,500 Descending Miami Center
11:16AM 26.4072 -81.4444 198° South 281 323 5,100 -1,500 Descending Miami Center
11:18AM 26.2603 -81.5596 233° Southwest  Level FlightAware Approximate
11:25AM 26.1500 -81.7667 246° West  Level FlightAware Approximate
11:26AM 26.1524 -81.7756 246° West  Level Estimated
11:27AM 26.1524 -81.7756 246° West  Level Estimated
11:28AM 26.1524 -81.7756 246° West  Level Estimated
11:29AM 26.1524 -81.7756 246° West  Level Estimated
11:30AM 26.1524 -81.7756 246° West  Level Estimated